createdAt,value
2023-03-25T00:00:19.158Z,8.69
2023-03-25T00:02:50.268Z,8.70
2023-03-25T00:05:19.371Z,8.65
2023-03-25T00:07:50.489Z,8.62
2023-03-25T00:10:18.129Z,8.59
2023-03-25T00:12:45.269Z,8.56
2023-03-25T00:15:13.912Z,8.54
2023-03-25T00:17:40.921Z,8.51
2023-03-25T00:20:10.158Z,8.47
2023-03-25T00:22:41.291Z,8.46
2023-03-25T00:25:20.221Z,8.44
2023-03-25T00:27:48.925Z,8.42
2023-03-25T00:30:18.324Z,8.38
2023-03-25T00:32:49.795Z,8.36
2023-03-25T00:35:19.240Z,8.32
2023-03-25T00:37:59.878Z,8.28
2023-03-25T00:40:29.522Z,8.26
2023-03-25T00:42:57.261Z,8.21
2023-03-25T00:45:24.258Z,8.18
2023-03-25T00:47:51.494Z,8.17
2023-03-25T00:50:18.697Z,8.11
2023-03-25T00:52:45.712Z,8.09
2023-03-25T00:55:12.793Z,8.05
2023-03-25T00:57:39.768Z,8.03
2023-03-25T01:00:11.299Z,8.01
2023-03-25T01:02:41.901Z,8.00
2023-03-25T01:05:11.307Z,7.98
2023-03-25T01:07:41.536Z,7.94
2023-03-25T01:10:09.867Z,7.94
2023-03-25T01:12:36.800Z,7.92
2023-03-25T01:15:04.032Z,7.89
2023-03-25T01:17:31.165Z,7.88
2023-03-25T01:19:58.200Z,7.90
2023-03-25T01:22:25.165Z,7.87
2023-03-25T01:24:52.115Z,7.86
2023-03-25T01:27:19.060Z,7.86
2023-03-25T01:29:46.114Z,7.86
2023-03-25T01:32:13.068Z,7.89
2023-03-25T01:34:42.773Z,7.86
2023-03-25T01:37:10.210Z,7.86
2023-03-25T01:39:37.474Z,7.85
2023-03-25T01:42:04.577Z,7.83
2023-03-25T01:44:31.770Z,7.85
2023-03-25T01:47:03.681Z,7.83
2023-03-25T01:49:39.100Z,7.81
2023-03-25T01:52:16.684Z,7.83
2023-03-25T01:54:45.483Z,7.83
2023-03-25T01:57:18.232Z,7.84
2023-03-25T01:59:46.210Z,7.81
2023-03-25T02:02:17.705Z,7.80
2023-03-25T02:05:21.609Z,7.86
2023-03-25T02:07:49.830Z,7.79
2023-03-25T02:10:18.088Z,7.75
2023-03-25T02:12:46.904Z,7.75
2023-03-25T02:15:17.829Z,7.72
2023-03-25T02:18:36.125Z,7.63
2023-03-25T02:21:50.134Z,7.60
2023-03-25T02:24:43.313Z,7.54
2023-03-25T02:27:48.332Z,7.47
2023-03-25T02:30:56.876Z,7.42
2023-03-25T02:33:47.791Z,7.33
2023-03-25T02:36:52.330Z,7.26
2023-03-25T02:39:47.108Z,7.21
2023-03-25T02:42:32.915Z,7.17
2023-03-25T02:45:12.386Z,7.13
2023-03-25T02:47:50.588Z,7.09
2023-03-25T02:50:27.785Z,7.06
2023-03-25T02:53:03.515Z,7.03
2023-03-25T02:55:33.332Z,7.01
2023-03-25T02:58:04.695Z,6.98
2023-03-25T03:00:32.626Z,6.97
2023-03-25T03:03:05.620Z,6.93
2023-03-25T03:05:36.370Z,6.90
2023-03-25T03:08:30.380Z,6.85
2023-03-25T03:11:35.693Z,6.82
2023-03-25T03:14:38.469Z,6.79
2023-03-25T03:17:22.141Z,6.78
2023-03-25T03:20:00.677Z,6.78
2023-03-25T03:22:43.330Z,6.78
2023-03-25T03:25:19.290Z,6.75
2023-03-25T03:28:04.493Z,6.75
2023-03-25T03:30:55.591Z,6.76
2023-03-25T03:33:38.831Z,6.76
2023-03-25T03:36:13.592Z,6.73
2023-03-25T03:38:54.455Z,6.74
2023-03-25T03:41:25.424Z,6.78
2023-03-25T03:44:00.321Z,6.77
2023-03-25T03:46:39.854Z,6.76
2023-03-25T03:49:14.115Z,6.76
2023-03-25T03:51:55.594Z,6.78
2023-03-25T03:54:36.459Z,6.74
2023-03-25T03:57:32.893Z,6.74
2023-03-25T04:00:10.602Z,6.72
2023-03-25T04:03:14.500Z,6.68
2023-03-25T04:05:52.851Z,6.69
2023-03-25T04:08:31.840Z,6.68
2023-03-25T04:11:05.010Z,6.68
2023-03-25T04:13:37.878Z,6.67
2023-03-25T04:16:06.372Z,6.70
2023-03-25T04:18:33.751Z,6.71
2023-03-25T04:21:01.497Z,6.71
2023-03-25T04:23:31.829Z,6.72
2023-03-25T04:26:02.613Z,6.71
2023-03-25T04:28:31.690Z,6.73
2023-03-25T04:31:00.554Z,6.73
2023-03-25T04:33:31.888Z,6.73
2023-03-25T04:36:01.743Z,6.75
2023-03-25T04:38:29.316Z,6.76
2023-03-25T04:40:56.322Z,6.76
2023-03-25T04:43:23.683Z,6.77
2023-03-25T04:45:54.609Z,6.78
2023-03-25T04:48:29.924Z,6.79
2023-03-25T04:50:59.040Z,6.82
2023-03-25T04:53:27.615Z,6.82
2023-03-25T04:55:55.794Z,6.81
2023-03-25T04:58:23.268Z,6.81
2023-03-25T05:00:51.964Z,6.82
2023-03-25T05:03:24.236Z,6.82
2023-03-25T05:05:52.818Z,6.81
2023-03-25T05:08:21.604Z,6.80
2023-03-25T05:10:49.347Z,6.80
2023-03-25T05:13:16.509Z,6.77
2023-03-25T05:15:43.648Z,6.80
2023-03-25T05:18:14.042Z,6.79
2023-03-25T05:20:43.891Z,6.81
2023-03-25T05:23:17.759Z,6.80
2023-03-25T05:25:50.417Z,6.79
2023-03-25T05:28:17.981Z,6.79
2023-03-25T05:30:47.178Z,6.77
2023-03-25T05:33:17.502Z,6.76
2023-03-25T05:35:45.418Z,6.76
2023-03-25T05:38:14.688Z,6.77
2023-03-25T05:40:41.621Z,6.77
2023-03-25T05:43:08.550Z,6.77
2023-03-25T05:45:36.062Z,6.74
2023-03-25T05:48:04.130Z,6.74
2023-03-25T05:50:31.516Z,6.71
2023-03-25T05:52:59.766Z,6.70
2023-03-25T05:55:27.772Z,6.69
2023-03-25T05:57:56.825Z,6.68
2023-03-25T06:00:24.509Z,6.68
2023-03-25T06:02:52.061Z,6.69
2023-03-25T06:05:23.484Z,6.68
2023-03-25T06:07:51.115Z,6.72
2023-03-25T06:10:18.647Z,6.73
2023-03-25T06:12:47.419Z,6.73
2023-03-25T06:15:28.652Z,6.74
2023-03-25T06:17:57.042Z,6.76
2023-03-25T06:20:24.073Z,6.79
2023-03-25T06:22:51.020Z,6.81
2023-03-25T06:25:23.514Z,6.84
2023-03-25T06:27:51.124Z,6.86
2023-03-25T06:30:20.964Z,6.89
2023-03-25T06:32:52.368Z,6.89
2023-03-25T06:35:20.631Z,6.90
2023-03-25T06:37:49.170Z,6.91
2023-03-25T06:40:25.188Z,6.93
2023-03-25T06:42:52.329Z,6.97
2023-03-25T06:45:39.743Z,6.99
2023-03-25T06:48:16.625Z,7.04
2023-03-25T06:50:45.353Z,7.06
2023-03-25T06:53:12.381Z,7.09
2023-03-25T06:55:39.425Z,7.11
2023-03-25T06:58:06.586Z,7.17
2023-03-25T07:00:33.536Z,7.19
2023-03-25T07:03:01.642Z,7.25
2023-03-25T07:05:28.776Z,7.25
2023-03-25T07:07:56.142Z,7.28
2023-03-25T07:10:23.238Z,7.34
2023-03-25T07:12:50.187Z,7.37
2023-03-25T07:15:17.514Z,7.43
2023-03-25T07:17:49.089Z,7.54
2023-03-25T07:20:17.153Z,7.57
2023-03-25T07:22:44.471Z,7.59
2023-03-25T07:25:11.389Z,7.68
2023-03-25T07:27:38.343Z,7.71
2023-03-25T07:30:10.129Z,7.77
2023-03-25T07:32:37.087Z,7.81
2023-03-25T07:35:05.495Z,7.85
2023-03-25T07:37:32.594Z,7.93
2023-03-25T07:39:59.545Z,8.04
2023-03-25T07:42:26.478Z,8.09
2023-03-25T07:45:03.725Z,8.18
2023-03-25T07:47:31.672Z,8.19
2023-03-25T07:49:58.760Z,8.20
2023-03-25T07:52:25.821Z,8.22
2023-03-25T07:54:52.757Z,8.30
2023-03-25T07:57:19.740Z,8.29
2023-03-25T07:59:46.745Z,8.33
2023-03-25T08:02:15.195Z,8.41
2023-03-25T08:04:42.547Z,8.45
2023-03-25T08:07:09.638Z,8.48
2023-03-25T08:09:36.556Z,8.53
2023-03-25T08:12:03.619Z,8.52
2023-03-25T08:14:30.556Z,8.56
2023-03-25T08:16:57.522Z,8.66
2023-03-25T08:19:24.556Z,8.69
2023-03-25T08:21:51.579Z,8.71
2023-03-25T08:24:18.528Z,8.75
2023-03-25T08:26:45.451Z,8.81
2023-03-25T08:29:12.381Z,8.87
2023-03-25T08:31:40.363Z,8.88
2023-03-25T08:34:07.490Z,8.89
2023-03-25T08:36:34.452Z,8.87
2023-03-25T08:39:07.540Z,8.87
2023-03-25T08:41:34.498Z,8.85
2023-03-25T08:44:04.483Z,8.87
2023-03-25T08:46:31.570Z,8.87
2023-03-25T08:48:58.536Z,8.86
2023-03-25T08:51:25.610Z,8.83
2023-03-25T08:53:52.622Z,8.81
2023-03-25T08:56:19.636Z,8.77
2023-03-25T08:58:46.732Z,8.74
2023-03-25T09:01:13.809Z,8.70
2023-03-25T09:03:42.163Z,8.63
2023-03-25T09:06:09.731Z,8.63
2023-03-25T09:08:37.302Z,8.62
2023-03-25T09:11:04.585Z,8.64
2023-03-25T09:13:31.511Z,8.60
2023-03-25T09:15:58.978Z,8.59
2023-03-25T09:18:26.470Z,8.58
2023-03-25T09:20:59.811Z,8.58
2023-03-25T09:23:28.095Z,8.61
2023-03-25T09:25:59.486Z,8.66
2023-03-25T09:28:26.434Z,8.77
2023-03-25T09:30:55.118Z,8.87
2023-03-25T09:33:22.830Z,8.95
2023-03-25T09:35:50.684Z,9.00
2023-03-25T09:38:17.782Z,9.08
2023-03-25T09:40:45.145Z,9.10
2023-03-25T09:43:56.854Z,9.14
2023-03-25T09:46:23.993Z,9.16
2023-03-25T09:48:52.054Z,9.19
2023-03-25T09:51:30.473Z,9.21
2023-03-25T09:54:18.332Z,9.25
2023-03-25T09:56:46.113Z,9.28
2023-03-25T09:59:23.485Z,9.30
2023-03-25T10:02:29.618Z,9.32
2023-03-25T10:05:27.580Z,9.35
2023-03-25T10:08:16.924Z,9.35
2023-03-25T10:11:04.831Z,9.36
2023-03-25T10:14:14.597Z,9.40
2023-03-25T10:17:08.880Z,9.43
2023-03-25T10:19:51.139Z,9.47
2023-03-25T10:22:37.340Z,9.52
2023-03-25T10:25:14.064Z,9.62
2023-03-25T10:27:46.686Z,9.71
2023-03-25T10:30:42.842Z,9.82
2023-03-25T10:33:33.100Z,9.95
2023-03-25T10:36:03.771Z,10.14
2023-03-25T10:38:33.725Z,10.24
2023-03-25T10:41:27.808Z,10.36
2023-03-25T10:43:54.877Z,10.48
2023-03-25T10:46:34.942Z,10.59
2023-03-25T10:49:01.911Z,10.67
2023-03-25T10:51:35.600Z,10.81
2023-03-25T10:54:03.778Z,10.92
2023-03-25T10:56:41.265Z,11.02
2023-03-25T10:59:45.287Z,11.04
2023-03-25T11:02:25.837Z,11.03
2023-03-25T11:05:01.443Z,11.00
2023-03-25T11:07:43.567Z,10.98
2023-03-25T11:10:16.165Z,10.92
2023-03-25T11:12:46.628Z,10.86
2023-03-25T11:15:32.014Z,10.78
2023-03-25T11:18:10.827Z,10.71
2023-03-25T11:20:45.876Z,10.67
2023-03-25T11:23:41.956Z,10.54
2023-03-25T11:26:13.960Z,10.47
2023-03-25T11:28:50.674Z,10.32
2023-03-25T11:31:25.294Z,10.19
2023-03-25T11:34:17.680Z,10.10
2023-03-25T11:36:59.992Z,10.02
2023-03-25T11:39:40.517Z,9.97
2023-03-25T11:42:19.303Z,10.00
2023-03-25T11:44:56.082Z,10.00
2023-03-25T11:47:30.218Z,10.00
2023-03-25T11:49:57.796Z,10.01
2023-03-25T11:52:44.340Z,10.03
2023-03-25T11:55:28.984Z,9.96
2023-03-25T11:57:59.184Z,9.71
2023-03-25T12:00:32.671Z,9.51
2023-03-25T12:03:04.152Z,9.32
2023-03-25T12:05:32.527Z,9.16
2023-03-25T12:08:29.434Z,9.06
2023-03-25T12:11:09.205Z,8.98
2023-03-25T12:14:27.226Z,9.04
2023-03-25T12:17:03.363Z,9.22
2023-03-25T12:19:56.447Z,9.54
2023-03-25T12:22:37.810Z,9.82
2023-03-25T12:25:19.902Z,10.17
2023-03-25T12:28:22.295Z,10.56
2023-03-25T12:31:04.818Z,10.84
2023-03-25T12:34:04.327Z,11.18
2023-03-25T12:36:59.932Z,11.40
2023-03-25T12:40:12.206Z,11.56
2023-03-25T12:43:25.546Z,11.61
2023-03-25T12:46:23.418Z,11.60
2023-03-25T12:49:22.165Z,11.56
2023-03-25T12:52:24.386Z,11.50
2023-03-25T12:55:23.621Z,11.45
2023-03-25T12:57:50.415Z,11.39
2023-03-25T13:00:42.249Z,11.38
2023-03-25T13:03:27.877Z,11.35
2023-03-25T13:06:16.189Z,11.34
2023-03-25T13:09:01.097Z,11.36
2023-03-25T13:12:17.501Z,11.35
2023-03-25T13:15:06.556Z,11.30
2023-03-25T13:17:47.829Z,11.24
2023-03-25T13:20:17.236Z,11.16
2023-03-25T13:22:51.167Z,11.11
2023-03-25T13:25:29.321Z,11.06
2023-03-25T13:28:01.682Z,11.00
2023-03-25T13:30:38.731Z,10.97
2023-03-25T13:33:15.510Z,10.93
2023-03-25T13:35:51.571Z,10.90
2023-03-25T13:38:53.901Z,10.89
2023-03-25T13:41:43.870Z,10.83
2023-03-25T13:44:32.118Z,10.82
2023-03-25T13:47:42.979Z,10.75
2023-03-25T13:50:27.971Z,10.71
2023-03-25T13:53:06.413Z,10.68
2023-03-25T13:55:41.025Z,10.60
2023-03-25T13:58:13.236Z,10.61
2023-03-25T14:01:14.070Z,10.61
2023-03-25T14:04:01.940Z,10.71
2023-03-25T14:07:02.054Z,10.82
2023-03-25T14:09:37.702Z,10.98
2023-03-25T14:12:20.752Z,11.34
2023-03-25T14:15:13.971Z,11.69
2023-03-25T14:17:42.397Z,11.94
2023-03-25T14:20:17.775Z,12.03
2023-03-25T14:22:44.821Z,12.16
2023-03-25T14:25:38.904Z,12.25
2023-03-25T14:28:09.411Z,12.34
2023-03-25T14:30:37.087Z,12.47
2023-03-25T14:33:04.972Z,12.61
2023-03-25T14:35:35.000Z,12.76
2023-03-25T14:38:08.269Z,12.97
2023-03-25T14:41:01.407Z,13.06
2023-03-25T14:43:46.122Z,13.25
2023-03-25T14:46:13.254Z,13.43
2023-03-25T14:48:54.750Z,13.66
2023-03-25T14:51:28.271Z,13.93
2023-03-25T14:54:23.126Z,14.20
2023-03-25T14:57:14.303Z,14.45
2023-03-25T14:59:48.574Z,14.66
2023-03-25T15:02:27.551Z,14.86
2023-03-25T15:05:23.720Z,14.94
2023-03-25T15:08:11.697Z,15.09
2023-03-25T15:10:51.025Z,15.01
2023-03-25T15:13:29.974Z,15.13
2023-03-25T15:16:05.993Z,15.24
2023-03-25T15:18:38.529Z,15.38
2023-03-25T15:21:08.093Z,15.36
2023-03-25T15:23:47.387Z,15.39
2023-03-25T15:26:37.692Z,15.26
2023-03-25T15:29:17.233Z,15.16
2023-03-25T15:31:56.784Z,14.97
2023-03-25T15:34:58.134Z,14.81
2023-03-25T15:37:59.843Z,14.84
2023-03-25T15:40:46.795Z,14.81
2023-03-25T15:43:47.222Z,14.71
2023-03-25T15:46:45.807Z,14.70
2023-03-25T15:49:12.640Z,14.66
2023-03-25T15:52:02.538Z,14.69
2023-03-25T15:54:50.295Z,14.71
2023-03-25T15:57:29.053Z,14.72
2023-03-25T16:00:10.083Z,14.70
2023-03-25T16:03:03.921Z,14.70
2023-03-25T16:05:34.826Z,14.65
2023-03-25T16:08:10.531Z,14.57
2023-03-25T16:10:39.421Z,14.51
2023-03-25T16:13:23.831Z,14.47
2023-03-25T16:15:58.710Z,14.38
2023-03-25T16:18:26.262Z,14.32
2023-03-25T16:21:00.886Z,14.26
2023-03-25T16:23:29.666Z,14.15
2023-03-25T16:25:56.919Z,14.09
2023-03-25T16:28:33.086Z,13.98
2023-03-25T16:31:02.707Z,13.86
2023-03-25T16:33:37.645Z,13.74
2023-03-25T16:36:17.518Z,13.64
2023-03-25T16:38:44.808Z,13.54
2023-03-25T16:41:14.845Z,13.46
2023-03-25T16:43:42.850Z,13.39
2023-03-25T16:46:12.364Z,13.33
2023-03-25T16:48:47.382Z,13.25
2023-03-25T16:51:35.919Z,13.13
2023-03-25T16:54:11.277Z,13.01
2023-03-25T16:56:39.510Z,12.93
2023-03-25T16:59:30.183Z,12.80
2023-03-25T17:02:00.246Z,12.72
2023-03-25T17:04:41.897Z,12.66
2023-03-25T17:07:26.435Z,12.58
2023-03-25T17:09:57.848Z,12.50
2023-03-25T17:12:27.326Z,12.45
2023-03-25T17:15:08.632Z,12.38
2023-03-25T17:17:51.216Z,12.32
2023-03-25T17:20:31.821Z,12.29
2023-03-25T17:23:18.924Z,12.26
2023-03-25T17:25:59.769Z,12.20
2023-03-25T17:28:43.850Z,12.14
2023-03-25T17:31:30.407Z,12.13
2023-03-25T17:34:10.818Z,12.09
2023-03-25T17:36:45.289Z,12.06
2023-03-25T17:39:26.258Z,12.06
2023-03-25T17:42:01.456Z,12.04
2023-03-25T17:44:43.529Z,11.99
2023-03-25T17:47:15.761Z,11.95
2023-03-25T17:49:43.212Z,11.93
2023-03-25T17:52:11.354Z,11.93
2023-03-25T17:54:38.623Z,11.89
2023-03-25T17:57:21.694Z,11.87
2023-03-25T17:59:48.907Z,11.87
2023-03-25T18:02:17.336Z,11.85
2023-03-25T18:04:44.681Z,11.82
2023-03-25T18:07:11.883Z,11.82
2023-03-25T18:09:39.487Z,11.82
2023-03-25T18:12:06.860Z,11.80
2023-03-25T18:14:35.037Z,11.78
2023-03-25T18:17:04.082Z,11.76
2023-03-25T18:19:32.236Z,11.73
2023-03-25T18:22:06.792Z,11.67
2023-03-25T18:24:39.130Z,11.57
2023-03-25T18:27:06.416Z,11.41
2023-03-25T18:29:34.122Z,11.22
2023-03-25T18:32:01.742Z,10.97
2023-03-25T18:34:29.038Z,10.71
2023-03-25T18:36:56.510Z,10.47
2023-03-25T18:39:27.534Z,10.26
2023-03-25T18:41:54.898Z,10.10
2023-03-25T18:44:22.383Z,9.92
2023-03-25T18:46:49.815Z,9.80
2023-03-25T18:49:19.576Z,9.73
2023-03-25T18:51:50.273Z,9.68
2023-03-25T18:54:17.986Z,9.62
2023-03-25T18:56:46.941Z,9.58
2023-03-25T18:59:21.220Z,9.52
2023-03-25T19:01:48.403Z,9.47
2023-03-25T19:04:16.262Z,9.45
2023-03-25T19:06:43.953Z,9.40
2023-03-25T19:09:22.663Z,9.37
2023-03-25T19:11:51.030Z,9.32
2023-03-25T19:14:18.390Z,9.30
2023-03-25T19:16:53.766Z,9.28
2023-03-25T19:19:29.143Z,9.23
2023-03-25T19:21:56.297Z,9.20
2023-03-25T19:24:23.790Z,9.17
2023-03-25T19:26:51.484Z,9.16
2023-03-25T19:29:19.014Z,9.13
2023-03-25T19:31:46.605Z,9.10
2023-03-25T19:34:13.738Z,9.10
2023-03-25T19:36:41.298Z,9.07
2023-03-25T19:39:10.739Z,9.06
2023-03-25T19:41:42.829Z,9.04
2023-03-25T19:44:10.451Z,9.01
2023-03-25T19:46:37.662Z,8.99
2023-03-25T19:49:06.270Z,8.98
2023-03-25T19:51:33.387Z,8.99
2023-03-25T19:54:00.839Z,8.97
2023-03-25T19:56:28.132Z,8.95
2023-03-25T19:58:55.438Z,8.95
2023-03-25T20:01:23.311Z,8.94
2023-03-25T20:03:52.627Z,8.94
2023-03-25T20:06:20.710Z,8.93
2023-03-25T20:08:48.359Z,8.92
2023-03-25T20:11:15.964Z,8.91
2023-03-25T20:13:44.182Z,8.93
2023-03-25T20:16:12.319Z,8.91
2023-03-25T20:18:41.371Z,8.91
2023-03-25T20:21:09.837Z,8.90
2023-03-25T20:23:37.140Z,8.90
2023-03-25T20:26:05.646Z,8.89
2023-03-25T20:28:33.226Z,8.91
2023-03-25T20:31:00.522Z,8.91
2023-03-25T20:33:28.274Z,8.91
2023-03-25T20:35:56.413Z,8.92
2023-03-25T20:38:23.878Z,8.92
2023-03-25T20:40:56.762Z,8.91
2023-03-25T20:43:24.098Z,8.90
2023-03-25T20:45:56.587Z,8.87
2023-03-25T20:48:28.222Z,8.84
2023-03-25T20:51:06.298Z,8.84
2023-03-25T20:53:35.956Z,8.82
2023-03-25T20:56:04.251Z,8.79
2023-03-25T20:58:31.963Z,8.76
2023-03-25T21:01:00.801Z,8.73
2023-03-25T21:03:28.921Z,8.70
2023-03-25T21:06:07.374Z,8.67
2023-03-25T21:08:42.070Z,8.65
2023-03-25T21:11:09.766Z,8.63
2023-03-25T21:13:37.587Z,8.60
2023-03-25T21:16:06.923Z,8.59
2023-03-25T21:18:36.352Z,8.56
2023-03-25T21:21:04.030Z,8.55
2023-03-25T21:23:31.952Z,8.53
2023-03-25T21:26:09.062Z,8.52
2023-03-25T21:28:38.428Z,8.50
2023-03-25T21:31:10.645Z,8.48
2023-03-25T21:33:38.034Z,8.45
2023-03-25T21:36:08.628Z,8.44
2023-03-25T21:38:36.590Z,8.44
2023-03-25T21:41:06.620Z,8.42
2023-03-25T21:43:36.224Z,8.42
2023-03-25T21:46:06.129Z,8.41
2023-03-25T21:48:38.064Z,8.40
2023-03-25T21:51:10.084Z,8.40
2023-03-25T21:53:43.808Z,8.38
2023-03-25T21:56:17.846Z,8.36
2023-03-25T21:58:46.882Z,8.35
2023-03-25T22:01:23.121Z,8.35
2023-03-25T22:03:55.069Z,8.33
2023-03-25T22:06:29.447Z,8.32
2023-03-25T22:08:57.251Z,8.31
2023-03-25T22:11:29.464Z,8.29
2023-03-25T22:13:57.277Z,8.30
2023-03-25T22:16:25.283Z,8.30
2023-03-25T22:18:53.167Z,8.30
2023-03-25T22:21:23.215Z,8.29
2023-03-25T22:23:54.188Z,8.29
2023-03-25T22:26:22.956Z,8.27
2023-03-25T22:28:58.744Z,8.28
2023-03-25T22:31:30.902Z,8.28
2023-03-25T22:34:02.968Z,8.28
2023-03-25T22:36:34.211Z,8.27
2023-03-25T22:39:01.163Z,8.27
2023-03-25T22:41:28.110Z,8.25
2023-03-25T22:43:55.885Z,8.25
2023-03-25T22:46:23.448Z,8.23
2023-03-25T22:48:51.321Z,8.21
2023-03-25T22:51:20.804Z,8.19
2023-03-25T22:53:48.193Z,8.18
2023-03-25T22:56:15.723Z,8.16
2023-03-25T22:58:42.807Z,8.13
2023-03-25T23:01:25.673Z,8.13
2023-03-25T23:03:54.119Z,8.12
2023-03-25T23:06:22.331Z,8.12
2023-03-25T23:08:49.667Z,8.12
2023-03-25T23:11:20.743Z,8.11
2023-03-25T23:13:51.322Z,8.10
2023-03-25T23:16:23.349Z,8.10
2023-03-25T23:18:51.155Z,8.10
2023-03-25T23:21:21.833Z,8.11
2023-03-25T23:23:52.762Z,8.13
2023-03-25T23:26:40.162Z,8.13
2023-03-25T23:29:10.603Z,8.13
2023-03-25T23:31:41.213Z,8.12
2023-03-25T23:34:14.742Z,8.10
2023-03-25T23:36:42.705Z,8.10
2023-03-25T23:39:15.337Z,8.07
2023-03-25T23:41:42.586Z,8.06
2023-03-25T23:44:09.589Z,8.03
2023-03-25T23:46:36.754Z,8.02
2023-03-25T23:49:03.869Z,8.00
2023-03-25T23:51:37.503Z,7.98
2023-03-25T23:54:07.282Z,7.97
2023-03-25T23:56:34.708Z,7.96
2023-03-25T23:59:02.617Z,7.95
